Time;durP1;ratioP1;P1;durP2;ratioP2;P2;SDS_P1;SDS_P2;PMS_P1;PMS_P2;Temp;Humidity;BMP_temperature;BMP_pressure;BME280_temperature;BME280_humidity;BME280_pressure;Samples;Min_cycle;Max_cycle;Signal;HPM_P1;HPM_P2
2022/09/03 00:02:13;;;;;;;2.67;2.58;;;;;;;17.24;83.50;100921.22;5232464;28;20073;-79
2022/09/03 00:05:24;;;;;;;3.85;3.65;;;;;;;17.21;83.86;100931.63;5235563;28;20017;-80
2022/09/03 00:08:03;;;;;;;4.53;4.13;;;;;;;17.15;84.47;100921.06;5237394;28;20092;-79
2022/09/03 00:10:34;;;;;;;3.90;3.70;;;;;;;17.12;84.92;100916.22;5237822;28;20032;-80
2022/09/03 00:13:08;;;;;;;7.25;3.50;;;;;;;16.92;85.26;100906.44;5238077;28;20032;-79
2022/09/03 00:15:39;;;;;;;3.05;2.95;;;;;;;16.92;85.81;100906.44;5237508;28;20017;-79
2022/09/03 00:18:16;;;;;;;3.97;3.75;;;;;;;17.02;86.27;100919.13;5238345;28;20490;-79
2022/09/03 00:21:14;;;;;;;3.38;3.28;;;;;;;16.98;86.73;100918.91;5236150;28;20071;-79
2022/09/03 00:23:47;;;;;;;3.60;3.38;;;;;;;16.93;87.00;100916.25;5234949;28;20016;-79
2022/09/03 00:26:27;;;;;;;3.92;3.60;;;;;;;16.93;87.82;100926.34;5234904;28;20120;-78
2022/09/03 00:29:10;;;;;;;3.88;3.55;;;;;;;16.93;87.84;100915.44;5235492;28;20033;-79
2022/09/03 00:31:47;;;;;;;2.58;2.38;;;;;;;16.90;88.56;100918.75;5235412;28;20102;-80
2022/09/03 00:34:33;;;;;;;2.95;2.85;;;;;;;16.84;88.97;100916.09;5235716;28;20051;-79
2022/09/03 00:37:04;;;;;;;2.67;2.58;;;;;;;16.78;89.49;100914.56;5235496;28;20063;-79
2022/09/03 00:39:35;;;;;;;3.60;3.40;;;;;;;16.75;90.05;100917.88;5236040;28;20029;-79
2022/09/03 00:42:24;;;;;;;3.08;2.95;;;;;;;16.69;90.48;100913.63;5239878;28;20553;-79
2022/09/03 00:45:16;;;;;;;2.70;2.55;;;;;;;16.52;91.65;100897.75;5246049;28;20036;-81
2022/09/03 00:47:59;;;;;;;3.90;3.70;;;;;;;16.62;92.03;100913.16;5246408;28;20078;-80
2022/09/03 00:50:51;;;;;;;2.88;2.78;;;;;;;16.60;92.35;100904.44;5240769;28;20056;-78
2022/09/03 00:53:37;;;;;;;3.85;3.50;;;;;;;16.54;92.91;100908.34;5238066;28;20039;-79
2022/09/03 00:56:32;;;;;;;3.60;3.47;;;;;;;16.41;93.47;100895.47;5239960;28;20077;-79
2022/09/03 00:59:28;;;;;;;3.78;3.47;;;;;;;16.48;93.65;100909.53;5239303;28;20029;-79
2022/09/03 01:02:10;;;;;;;3.55;3.25;;;;;;;16.46;94.12;100909.81;5239163;28;20021;-79
2022/09/03 01:04:41;;;;;;;4.10;3.80;;;;;;;16.43;94.55;100904.97;5240626;28;20028;-78
2022/09/03 01:07:33;;;;;;;2.85;2.75;;;;;;;16.37;95.54;100906.16;5240349;28;20075;-79
2022/09/03 01:10:10;;;;;;;3.55;3.35;;;;;;;16.36;95.80;100915.44;5241392;28;20048;-79
2022/09/03 01:12:50;;;;;;;4.18;3.58;;;;;;;16.34;96.25;100916.81;5242143;28;20033;-78
2022/09/03 01:15:44;;;;;;;3.80;3.50;;;;;;;16.19;96.58;100894.09;5246606;28;20028;-78
2022/09/03 01:18:17;;;;;;;3.67;3.47;;;;;;;16.26;97.06;100910.09;5248891;28;20166;-78
2022/09/03 01:21:06;;;;;;;3.00;2.80;;;;;;;16.21;98.08;100910.97;5247301;28;20077;-77
2022/09/03 01:24:02;;;;;;;7.78;4.18;;;;;;;16.20;98.50;100909.34;5246408;28;20059;-78
2022/09/03 01:26:51;;;;;;;3.05;2.85;;;;;;;16.20;98.82;100911.25;5246501;28;20071;-79
2022/09/03 01:29:21;;;;;;;5.60;2.58;;;;;;;16.19;99.14;100913.16;5246010;28;20052;-78
2022/09/03 01:31:56;;;;;;;2.63;2.53;;;;;;;16.18;99.30;100917.00;5246227;28;20051;-78
2022/09/03 01:34:45;;;;;;;3.58;3.40;;;;;;;16.18;99.45;100913.47;5245999;28;20027;-78
2022/09/03 01:37:40;;;;;;;8.63;3.77;;;;;;;16.19;99.96;100915.09;5243163;28;20025;-78
2022/09/03 01:40:13;;;;;;;3.90;3.65;;;;;;;16.18;100.00;100914.28;5239004;28;20028;-79
2022/09/03 01:43:14;;;;;;;3.00;2.90;;;;;;;16.17;100.00;100911.84;5238367;28;20565;-78
2022/09/03 01:45:45;;;;;;;3.40;3.10;;;;;;;16.17;100.00;100920.81;5247522;28;20024;-78
2022/09/03 01:48:47;;;;;;;3.97;3.63;;;;;;;16.20;100.00;100911.25;5246646;28;20084;-77
2022/09/03 01:51:23;;;;;;;5.15;3.95;;;;;;;16.15;100.00;100914.06;5245025;28;20033;-79
2022/09/03 01:54:18;;;;;;;3.03;2.92;;;;;;;16.13;100.00;100908.91;5237088;28;20391;-79
2022/09/03 01:57:19;;;;;;;7.22;3.30;;;;;;;16.08;100.00;100914.41;5237101;28;20071;-79
2022/09/03 01:59:58;;;;;;;2.80;2.70;;;;;;;16.05;100.00;100912.28;5236660;28;20016;-78
2022/09/03 02:02:29;;;;;;;4.00;2.88;;;;;;;16.04;100.00;100912.56;5237469;28;20096;-79
2022/09/03 02:05:10;;;;;;;4.38;3.35;;;;;;;16.02;100.00;100920.22;5235972;28;20039;-80
2022/09/03 02:07:44;;;;;;;2.95;2.83;;;;;;;15.77;100.00;100885.94;5237382;28;20032;-78
2022/09/03 02:10:19;;;;;;;3.17;2.97;;;;;;;15.95;100.00;100919.75;5237690;28;20032;-78
2022/09/03 02:12:56;;;;;;;3.35;3.25;;;;;;;15.82;100.00;100913.91;5237774;28;20028;-78
2022/09/03 02:15:27;;;;;;;3.60;3.00;;;;;;;15.77;100.00;100913.97;5236861;28;20071;-78
2022/09/03 02:18:02;;;;;;;4.95;2.92;;;;;;;15.72;100.00;100915.94;5237118;28;20025;-78
2022/09/03 02:20:33;;;;;;;2.85;2.75;;;;;;;15.66;100.00;100920.59;5237692;28;20123;-79
2022/09/03 02:23:03;;;;;;;3.72;3.53;;;;;;;15.53;100.00;100908.47;5237306;28;20048;-79
2022/09/03 02:25:42;;;;;;;3.65;3.45;;;;;;;15.49;100.00;100893.00;5238181;28;20307;-78
2022/09/03 02:28:13;;;;;;;5.75;4.18;;;;;;;15.51;100.00;100905.22;5235978;28;20096;-78
2022/09/03 02:30:44;;;;;;;3.80;3.50;;;;;;;15.52;100.00;100909.56;5236820;28;20051;-79
2022/09/03 02:33:15;;;;;;;3.88;3.67;;;;;;;15.57;100.00;100910.66;5236337;28;20025;-79
2022/09/03 02:35:46;;;;;;;3.47;3.28;;;;;;;15.55;100.00;100908.19;5237032;28;20028;-78
2022/09/03 02:38:27;;;;;;;2.70;2.55;;;;;;;15.52;100.00;100904.13;5237644;28;20025;-79
2022/09/03 02:40:57;;;;;;;3.70;3.13;;;;;;;15.54;100.00;100907.38;5235868;28;20031;-79
2022/09/03 02:43:38;;;;;;;3.33;3.13;;;;;;;15.51;100.00;100897.06;5236968;28;20036;-78
2022/09/03 02:46:15;;;;;;;3.40;3.17;;;;;;;15.52;100.00;100898.69;5237364;28;20035;-79
2022/09/03 02:48:46;;;;;;;3.80;3.10;;;;;;;15.61;100.00;100900.78;5237210;28;20017;-78
2022/09/03 02:51:16;;;;;;;2.75;2.65;;;;;;;15.62;100.00;100905.94;5235487;28;20550;-78
2022/09/03 02:53:47;;;;;;;3.50;3.30;;;;;;;15.53;100.00;100883.16;5236792;28;20096;-78
2022/09/03 02:56:17;;;;;;;2.67;2.58;;;;;;;15.75;100.00;100907.19;5236439;28;20120;-78
2022/09/03 02:58:48;;;;;;;3.88;3.67;;;;;;;15.80;100.00;100901.69;5236552;28;20032;-78
2022/09/03 03:01:19;;;;;;;3.20;2.95;;;;;;;15.85;100.00;100898.91;5234859;28;20029;-78
2022/09/03 03:03:50;;;;;;;3.00;2.83;;;;;;;15.90;100.00;100904.28;5233908;28;20032;-79
2022/09/03 03:06:21;;;;;;;4.20;3.90;;;;;;;15.92;100.00;100901.25;5236336;28;20024;-77
2022/09/03 03:08:54;;;;;;;2.70;2.60;;;;;;;15.91;100.00;100897.72;5237161;28;20032;-79
2022/09/03 03:11:25;;;;;;;3.05;2.85;;;;;;;15.93;100.00;100890.06;5240198;28;20029;-77
2022/09/03 03:13:55;;;;;;;2.38;2.28;;;;;;;16.05;100.00;100900.56;5240782;28;20017;-78
2022/09/03 03:16:26;;;;;;;3.35;3.10;;;;;;;16.07;100.00;100904.63;5237815;28;20021;-78
2022/09/03 03:18:57;;;;;;;2.70;2.58;;;;;;;16.07;100.00;100895.63;5237200;28;20031;-79
2022/09/03 03:21:27;;;;;;;3.30;3.10;;;;;;;16.07;100.00;100901.91;5237683;28;20029;-79
2022/09/03 03:24:00;;;;;;;3.05;2.90;;;;;;;16.12;100.00;100899.13;5236441;28;20032;-78
2022/09/03 03:26:30;;;;;;;3.33;3.03;;;;;;;16.11;100.00;100894.78;5237212;28;20025;-78
2022/09/03 03:29:04;;;;;;;4.32;3.47;;;;;;;16.14;100.00;100902.38;5235125;28;20483;-78
2022/09/03 03:31:35;;;;;;;2.40;2.30;;;;;;;16.12;100.00;100893.66;5235652;28;20033;-78
2022/09/03 03:34:05;;;;;;;3.55;3.35;;;;;;;16.17;100.00;100904.47;5235066;28;20035;-79
2022/09/03 03:36:36;;;;;;;3.08;2.97;;;;;;;16.17;100.00;100896.31;5235044;28;20021;-78
2022/09/03 03:39:07;;;;;;;3.58;3.38;;;;;;;16.00;100.00;100874.19;5232078;28;20025;-77
2022/09/03 03:41:37;;;;;;;2.75;2.58;;;;;;;16.15;100.00;100897.72;5232292;28;20398;-78
2022/09/03 03:44:08;;;;;;;3.10;2.88;;;;;;;16.17;100.00;100904.47;5232927;28;20434;-78
2022/09/03 03:46:40;;;;;;;3.60;3.40;;;;;;;16.17;100.00;100909.94;5235821;28;20029;-78
2022/09/03 03:49:10;;;;;;;4.10;3.65;;;;;;;15.90;100.00;100868.88;5236054;28;20021;-80
2022/09/03 03:51:41;;;;;;;3.47;3.28;;;;;;;16.15;100.00;100901.25;5236332;28;20044;-78
2022/09/03 03:54:11;;;;;;;3.25;3.05;;;;;;;16.17;100.00;100901.75;5232492;28;20471;-78
2022/09/03 03:56:42;;;;;;;3.10;2.90;;;;;;;16.13;100.00;100894.47;5232774;28;20198;-78
2022/09/03 03:59:12;;;;;;;3.88;3.55;;;;;;;16.11;100.00;100897.50;5233874;28;20112;-78
2022/09/03 04:01:42;;;;;;;3.10;2.90;;;;;;;16.10;100.00;100900.50;5235522;28;20071;-78
2022/09/03 04:04:13;;;;;;;2.92;2.83;;;;;;;16.13;100.00;100911.63;5235976;28;20029;-78
2022/09/03 04:06:43;;;;;;;4.35;2.88;;;;;;;16.13;100.00;100905.38;5236014;28;20055;-78
2022/09/03 04:09:14;;;;;;;5.72;3.38;;;;;;;16.05;100.00;100895.13;5235367;28;20025;-78
2022/09/03 04:11:44;;;;;;;3.65;2.97;;;;;;;16.08;100.00;100895.34;5235353;28;20055;-78
2022/09/03 04:14:16;;;;;;;3.13;2.92;;;;;;;16.16;100.00;100910.25;5236542;28;20036;-78
2022/09/03 04:16:47;;;;;;;3.17;2.88;;;;;;;16.13;100.00;100897.22;5236522;28;20025;-78
2022/09/03 04:19:18;;;;;;;3.60;3.40;;;;;;;16.19;100.00;100905.00;5237192;28;20067;-77
2022/09/03 04:21:48;;;;;;;3.00;2.90;;;;;;;16.08;100.00;100892.63;5236000;28;20021;-77
2022/09/03 04:24:19;;;;;;;5.28;2.88;;;;;;;16.20;100.00;100906.63;5236162;28;20490;-78
2022/09/03 04:26:49;;;;;;;5.28;3.67;;;;;;;16.05;100.00;100882.31;5235506;28;20124;-77
2022/09/03 04:29:20;;;;;;;2.95;2.80;;;;;;;16.14;100.00;100896.91;5236570;28;20035;-77
2022/09/03 04:34:40;;;;;;;3.00;2.80;;;;;;;16.18;100.00;100906.09;5235676;28;20120;-77
2022/09/03 04:37:10;;;;;;;3.72;3.53;;;;;;;16.18;100.00;100911.56;5235698;28;20060;-80
2022/09/03 04:39:41;;;;;;;3.08;2.88;;;;;;;16.14;100.00;100907.00;5236772;28;20401;-77
2022/09/03 04:42:12;;;;;;;2.90;2.80;;;;;;;16.10;100.00;100901.31;5236309;28;20021;-78
2022/09/03 04:44:42;;;;;;;2.72;2.60;;;;;;;16.05;100.00;100901.38;5237540;28;20444;-78
2022/09/03 04:47:13;;;;;;;3.40;3.20;;;;;;;16.00;100.00;100898.72;5240177;28;20048;-77
2022/09/03 04:49:44;;;;;;;3.78;3.55;;;;;;;16.00;100.00;100906.88;5234324;28;20029;-77
2022/09/03 04:52:14;;;;;;;3.38;3.17;;;;;;;15.89;100.00;100897.19;5233385;28;20024;-77
2022/09/03 04:54:45;;;;;;;2.50;2.40;;;;;;;15.95;100.00;100898.78;5233122;28;20040;-77
2022/09/03 04:57:15;;;;;;;2.40;2.30;;;;;;;15.81;100.00;100887.78;5234026;28;20025;-77
2022/09/03 04:59:46;;;;;;;2.30;2.20;;;;;;;15.94;100.00;100908.03;5233893;28;20025;-78
2022/09/03 05:02:16;;;;;;;2.80;2.70;;;;;;;15.98;100.00;100911.00;5232622;28;20038;-77
2022/09/03 05:04:47;;;;;;;2.90;2.53;;;;;;;15.92;100.00;100887.66;5232680;28;20399;-77
2022/09/03 05:07:19;;;;;;;3.17;3.00;;;;;;;15.98;100.00;100906.38;5234490;28;20051;-78
2022/09/03 05:09:49;;;;;;;6.53;3.10;;;;;;;16.06;100.00;100910.38;5233590;28;20084;-78
2022/09/03 05:12:22;;;;;;;12.73;3.33;;;;;;;15.94;100.00;100885.44;5231822;28;20053;-80
2022/09/03 05:14:52;;;;;;;2.72;2.63;;;;;;;16.07;100.00;100899.19;5234269;28;20016;-78
2022/09/03 05:17:22;;;;;;;3.05;2.65;;;;;;;15.99;100.00;100883.47;5235037;28;20025;-79
2022/09/03 05:19:53;;;;;;;5.07;3.15;;;;;;;16.05;100.00;100886.94;5235197;28;20080;-79
2022/09/03 05:22:23;;;;;;;3.70;3.40;;;;;;;16.19;100.00;100904.19;5234339;28;20033;-79
2022/09/03 05:24:55;;;;;;;2.63;2.53;;;;;;;16.19;100.00;100899.53;5233792;28;20112;-80
2022/09/03 05:27:25;;;;;;;3.38;3.17;;;;;;;16.22;100.00;100906.31;5234699;28;20032;-79
2022/09/03 05:29:55;;;;;;;4.07;3.67;;;;;;;16.26;100.00;100904.66;5238448;28;20013;-79
2022/09/03 05:32:29;;;;;;;3.40;3.30;;;;;;;16.28;100.00;100901.63;5237829;28;20033;-79
2022/09/03 05:35:00;;;;;;;4.78;3.10;;;;;;;16.29;100.00;100901.34;5236725;28;20021;-80
2022/09/03 05:37:30;;;;;;;3.33;3.13;;;;;;;16.26;100.00;100892.94;5234326;28;20025;-80
2022/09/03 05:40:01;;;;;;;2.40;2.40;;;;;;;16.41;100.00;100909.09;5235271;28;20368;-78
2022/09/03 05:42:36;;;;;;;3.78;3.25;;;;;;;16.44;100.00;100913.97;5233727;28;20033;-78
2022/09/03 05:45:09;;;;;;;5.53;2.95;;;;;;;16.48;100.00;100913.06;5233567;28;20382;-78
2022/09/03 05:47:40;;;;;;;5.43;2.60;;;;;;;16.52;100.00;100910.56;5253090;22;20124;-63
2022/09/03 05:50:10;;;;;;;7.97;3.17;;;;;;;16.55;100.00;100907.25;5224121;28;20111;-65
2022/09/03 05:52:40;;;;;;;3.35;3.10;;;;;;;16.57;100.00;100898.78;5224432;28;20451;-64
2022/09/03 05:55:11;;;;;;;2.78;2.67;;;;;;;16.59;100.00;100905.56;5224492;28;20028;-64
2022/09/03 05:57:42;;;;;;;5.28;2.85;;;;;;;16.61;100.00;100908.00;5223583;28;20527;-65
2022/09/03 06:00:12;;;;;;;3.20;2.95;;;;;;;16.68;100.00;100913.91;5234212;28;20135;-64
2022/09/03 06:02:48;;;;;;;3.33;2.80;;;;;;;16.70;100.00;100920.72;5245737;28;20027;-65
2022/09/03 06:05:19;;;;;;;6.60;3.05;;;;;;;16.70;100.00;100912.53;5244872;28;20027;-64
2022/09/03 06:07:50;;;;;;;6.20;3.83;;;;;;;16.77;100.00;100910.22;5233642;28;20040;-64
2022/09/03 06:10:21;;;;;;;2.38;2.28;;;;;;;16.75;100.00;100912.41;5230524;28;20035;-64
2022/09/03 06:12:51;;;;;;;8.45;3.72;;;;;;;16.87;100.00;100920.16;5223316;28;20104;-64
2022/09/03 06:15:21;;;;;;;3.65;3.45;;;;;;;16.91;100.00;100917.66;5223685;28;20116;-64
2022/09/03 06:17:52;;;;;;;9.13;3.05;;;;;;;16.93;100.00;100918.19;5224578;28;20033;-64
2022/09/03 06:20:26;;;;;;;3.25;3.13;;;;;;;16.98;100.00;100927.09;5223064;28;20053;-64
2022/09/03 06:22:57;;;;;;;3.97;3.63;;;;;;;16.82;100.00;100888.31;5224690;28;20037;-64
2022/09/03 06:25:27;;;;;;;13.32;3.85;;;;;;;17.04;100.00;100925.88;5223816;28;20044;-63
2022/09/03 06:27:58;;;;;;;5.97;2.53;;;;;;;17.14;100.00;100927.66;5224487;28;20021;-62
2022/09/03 06:30:28;;;;;;;2.63;2.30;;;;;;;17.15;100.00;100927.34;5224540;28;20406;-63
2022/09/03 06:32:59;;;;;;;3.88;3.22;;;;;;;17.19;100.00;100922.09;5224287;28;20108;-63
2022/09/03 06:35:29;;;;;;;2.92;2.72;;;;;;;17.27;100.00;100932.34;5222256;28;20023;-64
2022/09/03 06:38:00;;;;;;;5.75;2.45;;;;;;;17.30;100.00;100923.56;5223599;28;20104;-63
2022/09/03 06:40:30;;;;;;;3.17;2.97;;;;;;;17.36;100.00;100929.72;5223394;28;20449;-63
2022/09/03 06:43:01;;;;;;;3.40;3.17;;;;;;;17.38;100.00;100919.31;5223786;28;20036;-63
2022/09/03 06:45:31;;;;;;;5.53;3.72;;;;;;;17.51;100.00;100930.28;5223196;28;20020;-63
2022/09/03 06:48:02;;;;;;;4.78;4.13;;;;;;;17.58;100.00;100935.34;5223734;28;20119;-63
2022/09/03 06:50:32;;;;;;;3.63;2.63;;;;;;;17.65;100.00;100930.31;5223539;28;20079;-63
2022/09/03 06:53:03;;;;;;;2.10;1.92;;;;;;;17.74;100.00;100930.44;5223775;28;20388;-64
2022/09/03 06:55:34;;;;;;;3.03;2.83;;;;;;;17.84;100.00;100939.25;5222593;28;20548;-64
2022/09/03 06:58:04;;;;;;;16.33;2.85;;;;;;;17.93;100.00;100931.16;5223771;28;20025;-63
2022/09/03 07:00:35;;;;;;;4.07;2.20;;;;;;;18.05;100.00;100931.47;5223146;28;20028;-64
2022/09/03 07:03:05;;;;;;;2.30;2.20;;;;;;;18.15;100.00;100933.19;5223471;28;20025;-64
2022/09/03 07:05:36;;;;;;;3.70;3.50;;;;;;;18.26;100.00;100931.03;5223187;28;20021;-63
2022/09/03 07:08:06;;;;;;;5.50;2.83;;;;;;;18.40;100.00;100927.19;5223471;28;20052;-64
2022/09/03 07:10:37;;;;;;;4.15;3.78;;;;;;;18.50;100.00;100935.16;5223358;28;20465;-63
2022/09/03 07:13:07;;;;;;;10.43;4.75;;;;;;;18.66;100.00;100943.88;5223248;28;20024;-64
2022/09/03 07:15:39;;;;;;;3.92;3.30;;;;;;;18.71;100.00;100932.00;5223008;28;20025;-64
2022/09/03 07:18:09;;;;;;;3.20;3.08;;;;;;;18.99;100.00;100946.41;5223657;28;20362;-64
2022/09/03 07:20:39;;;;;;;2.45;2.35;;;;;;;19.13;99.94;100947.94;5223337;28;20032;-64
2022/09/03 07:23:10;;;;;;;4.10;3.03;;;;;;;19.39;99.06;100944.56;5222254;28;20071;-64
2022/09/03 07:25:40;;;;;;;7.13;3.13;;;;;;;19.44;97.05;100953.47;5223280;28;20484;-64
2022/09/03 07:28:11;;;;;;;2.95;2.80;;;;;;;19.52;96.77;100927.28;5223166;28;20507;-64
2022/09/03 07:30:41;;;;;;;2.20;2.10;;;;;;;19.90;95.45;100952.31;5223470;28;20032;-64
2022/09/03 07:33:12;;;;;;;3.45;3.15;;;;;;;20.18;94.60;100956.44;5223336;28;20033;-64
2022/09/03 07:35:42;;;;;;;2.63;2.42;;;;;;;20.45;93.64;100951.84;5222892;28;20388;-64
2022/09/03 07:38:18;;;;;;;3.08;2.88;;;;;;;20.74;91.66;100951.25;5221871;28;20025;-64
2022/09/03 07:40:57;;;;;;;3.92;3.63;;;;;;;20.90;91.29;100939.44;5222636;28;20020;-64
2022/09/03 07:43:32;;;;;;;3.78;3.47;;;;;;;21.15;89.94;100939.75;5222671;28;20032;-64
2022/09/03 07:46:03;;;;;;;5.40;3.45;;;;;;;21.26;89.30;100929.28;5189036;28;20462;-64
2022/09/03 07:48:33;;;;;;;3.40;3.15;;;;;;;21.51;88.39;100959.44;5222991;28;20140;-64
2022/09/03 07:51:04;;;;;;;3.55;3.35;;;;;;;21.65;88.55;100958.44;5222451;28;20124;-64
2022/09/03 07:53:35;;;;;;;3.70;3.38;;;;;;;21.86;88.91;100959.31;5220786;28;20521;-64
2022/09/03 07:56:09;;;;;;;6.15;3.72;;;;;;;21.93;87.74;100954.13;5223154;28;20017;-64
2022/09/03 07:58:41;;;;;;;3.35;3.00;;;;;;;22.06;87.81;100958.63;5221152;28;20129;-64
2022/09/03 08:01:14;;;;;;;2.83;2.55;;;;;;;22.18;87.43;100961.47;5222413;28;20117;-64
2022/09/03 08:03:47;;;;;;;4.05;3.65;;;;;;;22.35;87.62;100963.31;5221700;28;20112;-64
2022/09/03 08:06:20;;;;;;;3.55;2.92;;;;;;;22.42;84.31;100955.34;5223061;28;20025;-64
2022/09/03 08:08:59;;;;;;;3.10;2.83;;;;;;;22.52;85.33;100938.44;5223147;28;20035;-64
2022/09/03 08:11:30;;;;;;;;;;;;;;;22.84;84.64;100967.22;5224112;28;20111;-65
2022/09/03 08:14:05;;;;;;;5.22;3.70;;;;;;;23.02;83.53;100958.81;5223187;28;20110;-65
2022/09/03 08:16:46;;;;;;;3.95;3.65;;;;;;;23.26;84.26;100960.88;5221183;28;20393;-65
2022/09/03 08:19:18;;;;;;;3.08;2.40;;;;;;;23.33;80.87;100950.91;5222848;28;20028;-65
2022/09/03 08:21:48;;;;;;;3.60;2.92;;;;;;;23.48;81.04;100958.53;5243766;28;20027;-65
2022/09/03 08:24:20;;;;;;;5.43;3.03;;;;;;;23.64;78.88;100960.69;5243435;28;20111;-65
2022/09/03 08:26:51;;;;;;;6.25;2.40;;;;;;;23.69;78.66;100957.66;5243368;28;20491;-64
2022/09/03 08:29:21;;;;;;;4.40;3.97;;;;;;;23.85;78.34;100958.63;5243058;28;20119;-65
2022/09/03 08:31:52;;;;;;;5.90;2.72;;;;;;;23.96;78.30;100970.03;5241842;28;20031;-65
2022/09/03 08:34:23;;;;;;;2.60;2.40;;;;;;;23.98;77.30;100957.47;5242449;28;20024;-65
2022/09/03 08:36:53;;;;;;;3.08;2.97;;;;;;;24.14;77.15;100957.63;5241233;28;20124;-65
2022/09/03 08:39:23;;;;;;;4.00;2.97;;;;;;;24.23;78.05;100956.34;5237759;28;20112;-64
2022/09/03 08:42:26;;;;;;;3.20;2.60;;;;;;;24.36;76.47;100948.09;5223897;28;20273;-64
2022/09/03 08:45:05;;;;;;;2.80;2.20;;;;;;;24.43;76.72;100956.59;5220171;28;20037;-64
2022/09/03 08:47:42;;;;;;;8.13;3.08;;;;;;;24.45;76.65;100957.06;5221625;28;20037;-65
2022/09/03 08:50:25;;;;;;;2.55;2.45;;;;;;;24.50;76.01;100965.09;5219993;28;20369;-64
2022/09/03 08:53:06;;;;;;;3.08;2.88;;;;;;;24.36;75.95;100964.63;5216709;28;20029;-65
2022/09/03 08:55:59;;;;;;;6.28;2.70;;;;;;;24.44;76.53;100966.47;5217652;28;20029;-65
2022/09/03 08:58:32;;;;;;;2.97;2.88;;;;;;;24.57;75.88;100965.28;5220630;28;20021;-65
2022/09/03 09:01:27;;;;;;;6.95;3.15;;;;;;;24.76;75.17;100961.94;5221948;28;20029;-64
2022/09/03 09:04:40;;;;;;;2.78;2.58;;;;;;;24.74;75.04;100965.03;5225588;28;20029;-65
2022/09/03 09:07:45;;;;;;;2.88;2.67;;;;;;;24.55;76.47;100962.88;5220435;28;20029;-64
2022/09/03 09:10:21;;;;;;;2.85;2.75;;;;;;;24.21;75.26;100972.44;5225449;28;20108;-64
2022/09/03 09:12:57;;;;;;;2.47;2.38;;;;;;;24.00;76.22;100976.44;5225499;28;20111;-64
2022/09/03 09:15:39;;;;;;;5.90;3.30;;;;;;;23.82;76.86;100976.66;5225006;28;20469;-64
2022/09/03 09:18:30;;;;;;;5.28;2.58;;;;;;;23.75;78.99;100972.84;5225389;28;20028;-64
2022/09/03 09:21:15;;;;;;;2.70;2.40;;;;;;;23.80;80.39;100973.44;5225503;28;20056;-64
2022/09/03 09:23:48;;;;;;;4.53;4.13;;;;;;;23.78;77.95;100969.41;5224893;28;20077;-64
2022/09/03 09:26:21;;;;;;;5.88;3.05;;;;;;;23.75;78.84;100967.34;5224020;28;20049;-64
2022/09/03 09:29:03;;;;;;;3.10;2.90;;;;;;;23.74;80.42;100974.00;5230382;28;20504;-64
2022/09/03 09:31:34;;;;;;;4.20;3.90;;;;;;;23.74;82.42;100972.06;5247120;22;20475;-63
2022/09/03 09:34:06;;;;;;;2.70;2.40;;;;;;;23.76;82.12;100974.47;5222708;28;20116;-63
2022/09/03 09:36:50;;;;;;;3.25;3.05;;;;;;;23.72;83.02;100970.78;5223391;28;20028;-63
2022/09/03 09:39:22;;;;;;;4.70;3.00;;;;;;;23.78;84.02;100969.41;5223401;28;20040;-63
2022/09/03 09:42:10;;;;;;;3.00;2.90;;;;;;;23.76;83.16;100971.72;5232869;28;20042;-62
2022/09/03 09:44:42;;;;;;;3.10;3.00;;;;;;;23.67;83.27;100963.56;5226183;28;20025;-63
2022/09/03 09:47:24;;;;;;;6.97;3.42;;;;;;;23.87;84.40;100975.66;5245161;28;20114;-62
2022/09/03 09:49:57;;;;;;;3.05;2.63;;;;;;;24.10;83.80;100974.06;5227144;28;20028;-63
2022/09/03 09:52:30;;;;;;;3.38;3.17;;;;;;;24.17;81.71;100970.72;5226862;28;20020;-63
2022/09/03 09:55:13;;;;;;;3.90;3.58;;;;;;;24.22;80.04;100976.81;5244573;28;20128;-63
2022/09/03 09:57:45;;;;;;;7.07;3.55;;;;;;;24.22;81.06;100984.28;5227029;28;20527;-63
2022/09/03 10:00:17;;;;;;;3.63;3.42;;;;;;;24.14;79.80;100985.22;5244564;28;20045;-63
2022/09/03 10:02:50;;;;;;;2.63;2.53;;;;;;;24.11;80.46;100986.69;5245146;28;20021;-63
2022/09/03 10:05:31;;;;;;;2.90;2.75;;;;;;;24.20;81.25;100981.88;5244473;28;20040;-63
2022/09/03 10:08:15;;;;;;;3.55;3.35;;;;;;;24.28;80.96;100979.34;5245045;28;20016;-63
2022/09/03 10:10:49;;;;;;;16.85;3.30;;;;;;;24.33;80.78;100976.38;5244707;28;20035;-64
2022/09/03 10:13:35;;;;;;;2.70;2.53;;;;;;;24.39;81.49;100964.75;5227599;28;20032;-63
2022/09/03 10:16:14;;;;;;;4.38;3.55;;;;;;;24.54;81.65;100972.31;5227931;28;20077;-65
2022/09/03 10:19:08;;;;;;;26.35;5.03;;;;;;;24.54;80.77;100966.03;5245311;28;20024;-64
2022/09/03 10:21:43;;;;;;;3.70;3.50;;;;;;;24.49;81.10;100969.00;5244926;28;20040;-64
2022/09/03 10:24:15;;;;;;;4.80;4.35;;;;;;;24.55;82.02;100968.41;5244021;28;20027;-64
2022/09/03 10:26:46;;;;;;;3.85;3.65;;;;;;;24.64;80.85;100964.72;5244990;28;20032;-64
2022/09/03 10:29:20;;;;;;;2.85;2.67;;;;;;;24.90;82.50;100968.66;5243595;28;20021;-65
2022/09/03 10:31:59;;;;;;;4.47;3.50;;;;;;;25.32;81.01;100964.75;5244816;28;20028;-65
2022/09/03 10:35:18;;;;;;;4.13;3.72;;;;;;;25.63;83.27;100964.00;5226470;28;20056;-65
2022/09/03 10:38:07;;;;;;;3.08;2.88;;;;;;;25.56;82.70;100957.13;5199734;28;20113;-65
2022/09/03 10:41:16;;;;;;;3.13;3.00;;;;;;;25.33;83.97;100971.88;5244823;28;20537;-65
2022/09/03 10:44:07;;;;;;;3.03;2.92;;;;;;;25.26;85.30;100975.25;5244246;28;20069;-64
2022/09/03 10:47:18;;;;;;;3.15;2.95;;;;;;;25.44;86.57;100975.72;5226603;28;20603;-65
2022/09/03 10:50:03;;;;;;;5.05;3.28;;;;;;;25.49;85.44;100978.25;5213742;28;20039;-65
2022/09/03 10:53:06;;;;;;;3.17;2.97;;;;;;;25.79;86.20;100964.84;5244259;28;20038;-65
2022/09/03 10:56:23;;;;;;;3.75;3.53;;;;;;;26.29;85.83;100972.41;5228141;28;20082;-65
2022/09/03 10:59:02;;;;;;;4.32;3.92;;;;;;;26.56;85.37;100970.69;5186515;28;20725;-65
2022/09/03 11:01:51;;;;;;;3.08;2.92;;;;;;;26.72;84.14;100973.41;5223634;28;20035;-65
2022/09/03 11:04:30;;;;;;;2.75;2.65;;;;;;;26.84;81.46;100973.28;5223116;28;20528;-65
2022/09/03 11:07:04;;;;;;;3.80;3.42;;;;;;;26.85;81.70;100975.66;5223466;28;20037;-64
2022/09/03 11:09:39;;;;;;;5.18;4.25;;;;;;;27.13;81.39;100969.16;5223413;28;20025;-65
2022/09/03 11:12:45;;;;;;;3.33;3.13;;;;;;;27.37;78.90;100957.75;5205777;28;20025;-65
2022/09/03 11:15:41;;;;;;;4.35;4.10;;;;;;;27.46;80.16;100961.06;5208172;28;20044;-66
2022/09/03 11:18:47;;;;;;;2.75;2.65;;;;;;;27.56;78.40;100952.16;5223608;28;20025;-65
2022/09/03 11:21:22;;;;;;;4.07;3.83;;;;;;;27.50;77.35;100958.38;5164202;28;20067;-65
2022/09/03 11:24:12;;;;;;;3.65;3.35;;;;;;;27.53;79.84;100954.84;5223451;28;20301;-64
2022/09/03 11:26:47;;;;;;;3.00;2.88;;;;;;;27.76;77.89;100958.47;5223753;28;20036;-65
2022/09/03 11:29:36;;;;;;;2.55;2.40;;;;;;;27.88;78.03;100951.94;5222293;28;20103;-65
2022/09/03 11:32:23;;;;;;;4.53;3.35;;;;;;;27.53;78.41;100949.31;5222183;28;20892;-67
2022/09/03 11:34:54;;;;;;;3.42;3.17;;;;;;;27.86;77.73;100951.50;5222627;28;20073;-66
2022/09/03 11:37:27;;;;;;;3.03;2.83;;;;;;;28.07;77.69;100949.06;5224348;28;20453;-63
2022/09/03 11:40:17;;;;;;;2.15;2.05;;;;;;;28.09;76.08;100940.38;5243983;28;20503;-65
2022/09/03 11:42:47;;;;;;;3.13;3.03;;;;;;;27.69;76.58;100932.59;5225766;28;20024;-65
2022/09/03 11:45:38;;;;;;;3.17;2.97;;;;;;;27.34;78.00;100933.53;5241713;28;20090;-65
2022/09/03 11:48:29;;;;;;;3.92;3.58;;;;;;;27.05;79.22;100939.69;5248496;22;20056;-64
2022/09/03 11:50:59;;;;;;;4.57;4.15;;;;;;;27.26;80.55;100931.78;5222802;28;20060;-62
2022/09/03 11:53:35;;;;;;;3.70;3.25;;;;;;;27.80;78.62;100923.25;5223599;28;20602;-64
2022/09/03 11:56:05;;;;;;;3.63;3.42;;;;;;;28.05;79.02;100922.84;5206326;28;20025;-62
2022/09/03 11:58:41;;;;;;;3.33;3.13;;;;;;;28.37;77.42;100918.59;5224150;28;20033;-64
2022/09/03 12:01:19;;;;;;;3.10;2.90;;;;;;;28.46;77.92;100927.47;5223863;28;20025;-63
2022/09/03 12:03:53;;;;;;;3.38;3.20;;;;;;;28.81;77.08;100916.06;5205692;28;20037;-62
2022/09/03 12:06:33;;;;;;;2.95;2.78;;;;;;;29.19;75.12;100925.22;5223860;28;20166;-62
2022/09/03 12:09:28;;;;;;;5.10;3.35;;;;;;;29.53;74.72;100923.22;5205884;28;20081;-62